Time;durP1;ratioP1;P1;durP2;ratioP2;P2;SDS_P1;SDS_P2;PMS_P1;PMS_P2;Temp;Humidity;BMP_temperature;BMP_pressure;BME280_temperature;BME280_humidity;BME280_pressure;Samples;Min_cycle;Max_cycle;Signal;HPM_P1;HPM_P2
2022/06/07 00:02:12;;;;;;;17.30;7.47;;;;;;;18.35;76.70;92448.31;4769022;30;20048;-75
2022/06/07 00:04:38;;;;;;;19.70;7.55;;;;;;;18.32;77.43;92454.28;4769735;30;20035;-75
2022/06/07 00:07:05;;;;;;;15.50;7.60;;;;;;;18.30;77.62;92445.88;4768467;30;20100;-75
2022/06/07 00:09:31;;;;;;;20.77;7.38;;;;;;;18.30;77.21;92451.94;4770136;30;20048;-75
2022/06/07 00:11:57;;;;;;;21.88;8.27;;;;;;;18.28;77.17;92448.09;4770127;30;20097;-75
2022/06/07 00:14:24;;;;;;;15.57;7.88;;;;;;;18.28;77.00;92437.50;4767872;30;20043;-75
2022/06/07 00:16:50;;;;;;;15.48;7.85;;;;;;;18.26;77.12;92440.50;4768906;30;20040;-75
2022/06/07 00:19:16;;;;;;;18.27;8.38;;;;;;;18.27;77.60;92430.66;4768697;30;20549;-75
2022/06/07 00:21:42;;;;;;;14.75;7.78;;;;;;;18.27;77.73;92434.09;4753991;30;20040;-75
2022/06/07 00:24:07;;;;;;;21.23;7.60;;;;;;;18.26;78.21;92427.25;4783556;30;20104;-75
2022/06/07 00:26:37;;;;;;;18.38;7.10;;;;;;;18.26;78.34;92437.06;4769742;30;20047;-75
2022/06/07 00:29:03;;;;;;;17.83;7.45;;;;;;;18.22;78.98;92428.25;4782068;30;20035;-75
2022/06/07 00:31:29;;;;;;;15.75;7.85;;;;;;;18.20;78.61;92425.94;4768348;30;20044;-75
2022/06/07 00:33:55;;;;;;;17.42;7.43;;;;;;;18.19;78.19;92419.06;4767736;30;20042;-75
2022/06/07 00:36:21;;;;;;;18.77;8.48;;;;;;;18.19;78.30;92418.31;4743513;30;20039;-75
2022/06/07 00:38:47;;;;;;;20.60;7.63;;;;;;;18.18;77.82;92427.38;4765300;30;20058;-75
2022/06/07 00:41:13;;;;;;;17.85;7.95;;;;;;;18.17;78.08;92426.63;4769517;30;20047;-75
2022/06/07 00:43:41;;;;;;;17.38;7.57;;;;;;;18.16;78.25;92426.94;4752939;30;20394;-75
2022/06/07 00:46:11;;;;;;;16.67;8.30;;;;;;;18.14;78.19;92418.56;4769421;30;20039;-75
2022/06/07 00:48:38;;;;;;;16.98;8.13;;;;;;;18.12;78.29;92412.81;4767411;30;20112;-75
2022/06/07 00:51:11;;;;;;;17.40;7.97;;;;;;;18.09;78.12;92409.72;4769308;30;20127;-75
2022/06/07 00:53:37;;;;;;;17.75;8.82;;;;;;;18.08;78.02;92405.53;4769312;30;20082;-75
2022/06/07 00:56:18;;;;;;;20.88;8.35;;;;;;;18.05;78.14;92398.25;4768475;30;20051;-75
2022/06/07 00:58:43;;;;;;;15.43;8.20;;;;;;;18.01;78.79;92394.75;4782925;30;20399;-75
2022/06/07 01:01:09;;;;;;;18.42;7.68;;;;;;;17.96;79.18;92384.38;4782157;30;20672;-75
2022/06/07 01:03:39;;;;;;;14.23;7.13;;;;;;;17.91;79.63;92381.19;4753422;30;20051;-75
2022/06/07 01:11:34;;;;;;;21.10;8.23;;;;;;;17.77;79.68;92381.50;4781119;29;20154;-75
2022/06/07 01:14:00;;;;;;;16.73;8.07;;;;;;;17.73;79.54;92381.41;4767768;30;20069;-75
2022/06/07 01:16:29;;;;;;;14.32;7.70;;;;;;;17.67;79.68;92372.91;4767752;30;20152;-75
2022/06/07 01:18:56;;;;;;;13.63;7.68;;;;;;;17.61;80.38;92373.47;4767565;30;20590;-75
2022/06/07 01:43:36;;;;;;;18.58;8.68;;;;;;;17.26;81.27;92350.09;4772603;30;20087;-73
2022/06/07 01:46:05;;;;;;;24.50;9.65;;;;;;;17.26;81.19;92340.28;4733842;30;20051;-73
2022/06/07 01:48:32;;;;;;;20.05;9.77;;;;;;;17.41;80.65;92338.09;4738131;30;20264;-73
2022/06/07 01:51:03;;;;;;;22.23;9.73;;;;;;;17.36;80.60;92346.22;4751023;30;20050;-73
2022/06/07 01:53:30;;;;;;;21.67;9.18;;;;;;;17.31;80.57;92336.63;4752265;30;20563;-73
2022/06/07 01:56:10;;;;;;;20.30;8.70;;;;;;;17.28;80.90;92337.31;4752374;30;20123;-73
2022/06/07 01:58:38;;;;;;;17.85;8.63;;;;;;;17.23;80.86;92330.38;4752264;30;20067;-72
2022/06/07 02:01:05;;;;;;;18.80;9.85;;;;;;;17.32;81.86;92329.50;4751620;30;20044;-73
2022/06/07 02:03:31;;;;;;;19.45;8.02;;;;;;;17.28;83.00;92332.78;4758722;30;20044;-73
2022/06/07 02:05:59;;;;;;;21.25;8.75;;;;;;;17.21;82.99;92327.28;4750042;30;20044;-73
2022/06/07 02:08:27;;;;;;;20.17;8.30;;;;;;;17.11;82.95;92340.94;4734528;30;20084;-73
2022/06/07 02:10:54;;;;;;;13.60;8.32;;;;;;;17.04;83.49;92336.22;4724371;30;20064;-73
2022/06/07 02:13:21;;;;;;;19.50;8.50;;;;;;;16.99;83.49;92333.75;4768021;30;20436;-73
2022/06/07 02:15:47;;;;;;;17.50;9.00;;;;;;;17.02;82.35;92343.69;4751833;30;20051;-73
2022/06/07 02:18:14;;;;;;;19.23;7.75;;;;;;;16.99;81.71;92330.34;4748774;30;20441;-73
2022/06/07 02:20:54;;;;;;;18.95;7.72;;;;;;;16.87;82.39;92336.41;4753920;30;20435;-73
2022/06/07 02:23:19;;;;;;;14.18;7.35;;;;;;;16.78;82.48;92339.09;4751914;30;20047;-73
2022/06/07 02:25:50;;;;;;;15.30;7.10;;;;;;;16.79;82.38;92340.66;4752040;30;20047;-73
2022/06/07 02:28:16;;;;;;;14.52;7.00;;;;;;;16.82;82.43;92355.13;4767937;30;20035;-73
2022/06/07 02:30:45;;;;;;;12.20;6.22;;;;;;;16.77;82.67;92365.84;4768094;30;20050;-73
2022/06/07 02:33:11;;;;;;;11.68;5.97;;;;;;;16.67;83.41;92363.66;4768033;30;20084;-73
2022/06/07 02:35:40;;;;;;;11.40;5.10;;;;;;;16.41;83.97;92354.06;4752219;30;20050;-73
2022/06/07 02:38:07;;;;;;;12.90;5.07;;;;;;;16.06;85.77;92357.03;4752035;30;20422;-73
2022/06/07 02:40:34;;;;;;;10.63;5.43;;;;;;;15.78;87.52;92359.38;4750277;30;20546;-73
2022/06/07 02:43:01;;;;;;;11.75;5.32;;;;;;;15.82;87.44;92360.28;4734463;30;20131;-73
2022/06/07 02:45:26;;;;;;;10.68;5.18;;;;;;;15.64;87.99;92356.97;4765217;30;20402;-73
2022/06/07 02:47:52;;;;;;;12.77;5.45;;;;;;;15.71;87.73;92356.50;4751398;30;20047;-73
2022/06/07 02:50:20;;;;;;;9.45;5.35;;;;;;;15.71;88.04;92353.84;4751340;30;20035;-73
2022/06/07 02:52:49;;;;;;;8.57;5.45;;;;;;;15.70;87.84;92352.28;4751261;30;20039;-73
2022/06/07 02:55:22;;;;;;;13.90;5.50;;;;;;;15.76;88.15;92351.00;4751373;30;20040;-73
2022/06/07 02:57:52;;;;;;;25.13;5.22;;;;;;;15.75;87.84;92357.41;4751439;30;20101;-73
2022/06/07 03:00:22;;;;;;;11.20;5.47;;;;;;;15.66;88.29;92354.00;4737851;30;20051;-73
2022/06/07 03:02:48;;;;;;;10.82;5.07;;;;;;;15.60;89.11;92346.28;4766653;30;20039;-73
2022/06/07 03:05:16;;;;;;;10.48;5.60;;;;;;;15.73;87.39;92349.78;4737507;30;20047;-73
2022/06/07 03:07:50;;;;;;;12.40;5.30;;;;;;;15.72;88.10;92347.50;4750152;30;20036;-73
2022/06/07 03:10:17;;;;;;;13.40;5.28;;;;;;;15.63;88.71;92350.16;4735114;30;20044;-73
2022/06/07 03:12:44;;;;;;;8.23;4.25;;;;;;;15.71;88.11;92353.84;4751688;30;20422;-73
2022/06/07 03:15:15;;;;;;;11.25;4.80;;;;;;;15.69;87.71;92354.13;4723769;30;20055;-73
2022/06/07 03:17:41;;;;;;;7.60;4.60;;;;;;;15.62;87.51;92359.16;4752596;30;20193;-73
2022/06/07 03:20:10;;;;;;;10.05;5.43;;;;;;;15.60;88.42;92366.59;4769810;30;20079;-73
2022/06/07 03:22:37;;;;;;;11.27;5.03;;;;;;;15.61;87.41;92363.66;4755003;30;20557;-73
2022/06/07 03:25:05;;;;;;;9.90;5.45;;;;;;;15.65;87.34;92363.00;4754620;30;20032;-73
2022/06/07 03:27:35;;;;;;;9.00;4.53;;;;;;;15.62;87.23;92362.56;4769208;30;20056;-73
2022/06/07 03:30:04;;;;;;;8.63;5.05;;;;;;;15.65;87.33;92357.72;4754338;30;20410;-73
2022/06/07 03:32:29;;;;;;;10.48;4.53;;;;;;;15.67;87.29;92360.81;4754878;30;20043;-73
2022/06/07 03:34:55;;;;;;;8.30;4.80;;;;;;;15.69;87.31;92354.13;4754707;30;20520;-73
2022/06/07 03:37:24;;;;;;;10.55;4.82;;;;;;;15.69;87.25;92348.84;4740289;30;20055;-73
2022/06/07 03:39:50;;;;;;;9.40;4.88;;;;;;;15.72;87.04;92348.25;4754633;30;20048;-73
2022/06/07 03:42:17;;;;;;;14.90;5.28;;;;;;;15.74;86.68;92347.94;4770734;30;20101;-73
2022/06/07 03:44:48;;;;;;;8.18;4.80;;;;;;;15.76;86.56;92351.00;4754101;30;20044;-73
2022/06/07 03:47:18;;;;;;;10.80;5.07;;;;;;;15.76;86.96;92346.53;4770547;30;20043;-73
2022/06/07 03:49:48;;;;;;;11.95;4.80;;;;;;;15.76;86.81;92343.09;4753922;30;20075;-74
2022/06/07 03:52:17;;;;;;;10.43;5.20;;;;;;;15.77;87.31;92344.66;4740335;30;20035;-73
2022/06/07 03:54:44;;;;;;;9.68;4.72;;;;;;;15.78;87.38;92338.28;4769082;30;20507;-74
2022/06/07 03:57:12;;;;;;;12.73;4.82;;;;;;;15.82;87.27;92347.09;4769336;30;20134;-74
2022/06/07 03:59:42;;;;;;;10.35;5.20;;;;;;;15.81;87.72;92335.00;4760263;30;20039;-73
2022/06/07 04:02:09;;;;;;;17.33;6.63;;;;;;;15.81;87.55;92329.72;4753728;30;20075;-73
2022/06/07 04:04:35;;;;;;;11.05;6.22;;;;;;;15.82;87.79;92333.91;4735162;30;20115;-73
2022/06/07 04:09:54;;;;;;;15.90;6.78;;;;;;;15.90;87.39;92327.03;4742586;30;20047;-74
2022/06/07 04:12:26;;;;;;;16.67;7.60;;;;;;;15.94;87.27;92330.53;4754276;30;20036;-74
2022/06/07 04:14:53;;;;;;;13.52;6.13;;;;;;;15.98;87.11;92337.50;4754450;30;20063;-74
2022/06/07 04:17:21;;;;;;;18.67;6.80;;;;;;;16.01;87.22;92334.22;4754217;30;20035;-78
2022/06/07 04:19:52;;;;;;;13.77;6.30;;;;;;;16.06;87.25;92337.78;4741363;30;20047;-74
2022/06/07 04:22:20;;;;;;;13.63;5.60;;;;;;;16.10;87.51;92341.28;4753381;30;20047;-75
2022/06/07 04:24:52;;;;;;;13.60;6.80;;;;;;;16.14;86.88;92342.19;4753708;30;20164;-75
2022/06/07 04:27:20;;;;;;;16.95;6.47;;;;;;;16.19;86.77;92342.78;4738306;30;20048;-74
2022/06/07 04:29:51;;;;;;;11.68;6.15;;;;;;;16.25;86.51;92338.06;4751876;30;20091;-75
2022/06/07 04:32:17;;;;;;;14.07;6.45;;;;;;;16.31;85.95;92342.06;4752413;30;20127;-74
2022/06/07 04:34:44;;;;;;;11.85;6.88;;;;;;;16.38;85.57;92347.56;4753935;30;20063;-75
2022/06/07 04:37:12;;;;;;;14.70;6.10;;;;;;;16.39;85.17;92333.28;4750450;30;20075;-75
2022/06/07 04:39:39;;;;;;;10.95;5.53;;;;;;;16.43;84.17;92334.16;4753793;30;20067;-75
2022/06/07 04:42:09;;;;;;;14.10;6.13;;;;;;;16.50;83.48;92333.63;4750405;30;20047;-75
2022/06/07 04:45:06;;;;;;;21.67;7.05;;;;;;;16.58;82.42;92329.38;4751477;30;20116;-75
2022/06/07 04:47:53;;;;;;;15.65;5.97;;;;;;;16.71;80.30;92335.47;4738857;30;20043;-75
2022/06/07 04:50:19;;;;;;;10.38;5.88;;;;;;;16.78;80.24;92328.53;4752330;30;20517;-75
2022/06/07 04:52:46;;;;;;;14.68;6.05;;;;;;;16.80;80.73;92339.59;4745404;30;20054;-75
2022/06/07 04:55:13;;;;;;;17.05;6.15;;;;;;;16.82;80.03;92339.25;4734447;30;20044;-75
2022/06/07 04:57:39;;;;;;;14.30;5.70;;;;;;;16.85;79.38;92344.66;4737179;30;20052;-76
2022/06/07 05:00:07;;;;;;;10.50;5.68;;;;;;;16.79;80.12;92350.44;4753784;30;20082;-75
2022/06/07 05:02:36;;;;;;;11.55;4.75;;;;;;;16.57;80.97;92355.03;4763528;30;20040;-75
2022/06/07 05:05:04;;;;;;;8.52;4.35;;;;;;;16.50;81.00;92360.03;4742566;30;20044;-75
2022/06/07 05:07:30;;;;;;;13.18;4.65;;;;;;;16.51;81.47;92358.19;4752035;30;20532;-75
2022/06/07 05:10:01;;;;;;;12.45;4.82;;;;;;;16.56;79.69;92355.34;4739316;30;20048;-75
2022/06/07 05:12:40;;;;;;;11.05;4.30;;;;;;;16.56;80.46;92356.13;4759785;30;20511;-75
2022/06/07 05:15:08;;;;;;;11.30;4.72;;;;;;;16.56;81.24;92353.47;4746157;30;20055;-75
2022/06/07 05:17:46;;;;;;;12.80;4.88;;;;;;;16.60;81.66;92358.88;4735653;30;20073;-75
2022/06/07 05:20:12;;;;;;;8.45;4.35;;;;;;;16.67;81.54;92353.06;4738603;30;20040;-76
2022/06/07 05:22:39;;;;;;;16.02;5.30;;;;;;;16.73;81.48;92357.03;4743471;30;20675;-75
2022/06/07 05:25:06;;;;;;;16.55;6.00;;;;;;;16.79;82.40;92359.16;4764778;30;20076;-75
2022/06/07 05:27:44;;;;;;;14.90;6.80;;;;;;;16.85;82.88;92357.88;4732687;30;20047;-75
2022/06/07 05:30:15;;;;;;;17.27;6.55;;;;;;;16.92;83.65;92353.91;4752882;30;20045;-75
2022/06/07 05:32:46;;;;;;;14.27;6.55;;;;;;;17.01;83.90;92357.25;4748540;30;20078;-76
2022/06/07 05:35:18;;;;;;;17.35;7.93;;;;;;;17.07;83.58;92355.94;4752194;30;20448;-74
2022/06/07 05:37:56;;;;;;;15.38;7.63;;;;;;;17.12;83.33;92358.34;4738001;30;20542;-75
2022/06/07 05:40:25;;;;;;;16.90;7.13;;;;;;;17.17;83.04;92355.47;4750613;30;20056;-74
2022/06/07 05:42:51;;;;;;;12.98;7.05;;;;;;;17.23;82.86;92354.16;4748134;30;20047;-73
2022/06/07 05:45:31;;;;;;;20.30;7.25;;;;;;;17.22;81.54;92355.25;4750343;30;20098;-74
2022/06/07 05:47:59;;;;;;;9.68;5.68;;;;;;;17.21;80.07;92361.66;4738134;30;20575;-74
2022/06/07 05:50:29;;;;;;;14.02;6.15;;;;;;;17.27;80.69;92370.94;4738395;30;20101;-74
2022/06/07 05:52:58;;;;;;;17.65;5.60;;;;;;;17.35;80.94;92365.88;4752351;30;20047;-75
2022/06/07 05:55:24;;;;;;;17.25;5.93;;;;;;;17.39;78.89;92361.47;4737769;30;20058;-75
2022/06/07 05:57:51;;;;;;;13.13;6.35;;;;;;;17.53;76.96;92372.47;4752536;30;20083;-75
2022/06/07 06:00:18;;;;;;;17.75;5.97;;;;;;;17.55;76.47;92370.28;4754336;30;20047;-77
2022/06/07 06:02:48;;;;;;;19.27;6.07;;;;;;;17.72;76.69;92376.44;4752529;30;20447;-75
2022/06/07 06:05:25;;;;;;;13.48;6.88;;;;;;;17.87;75.38;92376.53;4739020;30;20455;-75
2022/06/07 06:10:37;;;;;;;10.95;6.30;;;;;;;17.88;77.31;92378.09;4752466;30;20044;-75
2022/06/07 06:13:06;;;;;;;14.73;5.45;;;;;;;17.85;77.96;92376.09;4738033;30;20146;-75
2022/06/07 06:15:32;;;;;;;15.43;6.65;;;;;;;17.65;85.02;92379.63;4737718;30;20047;-75
2022/06/07 06:18:01;;;;;;;13.73;6.95;;;;;;;17.46;86.35;92382.84;4737791;30;20123;-75
2022/06/07 06:20:36;;;;;;;19.70;6.47;;;;;;;17.37;85.48;92379.53;4752436;30;20135;-75
2022/06/07 06:23:08;;;;;;;16.23;6.95;;;;;;;17.17;86.75;92392.50;4752125;30;20460;-75
2022/06/07 06:25:34;;;;;;;14.18;7.18;;;;;;;16.87;88.39;92394.56;4737565;30;20130;-75
2022/06/07 06:28:00;;;;;;;17.08;7.30;;;;;;;16.76;87.71;92391.53;4752235;30;20056;-75
2022/06/07 06:30:26;;;;;;;13.85;6.90;;;;;;;16.60;88.73;92395.88;4737562;30;20198;-74
2022/06/07 06:33:06;;;;;;;12.30;6.57;;;;;;;16.40;89.12;92400.88;4752103;30;20147;-75
2022/06/07 06:35:32;;;;;;;10.85;6.38;;;;;;;16.36;90.84;92401.84;4737556;30;20146;-74
2022/06/07 06:37:58;;;;;;;14.32;7.05;;;;;;;16.30;91.28;92398.63;4752086;30;20135;-75
2022/06/07 06:40:24;;;;;;;16.67;7.28;;;;;;;16.40;89.90;92405.38;4752155;30;20059;-75
2022/06/07 06:42:54;;;;;;;12.43;6.47;;;;;;;16.23;90.76;92414.19;4751997;30;20429;-75
2022/06/07 06:45:35;;;;;;;20.83;7.35;;;;;;;16.31;90.31;92409.97;4751925;30;20039;-75
2022/06/07 06:48:09;;;;;;;14.65;6.53;;;;;;;16.26;90.44;92418.84;4752008;30;20495;-75
2022/06/07 06:50:35;;;;;;;17.00;7.18;;;;;;;16.10;91.83;92420.50;4751974;30;20044;-75
2022/06/07 06:53:02;;;;;;;14.93;6.95;;;;;;;16.04;93.11;92419.94;4753082;30;20443;-75
2022/06/07 06:55:29;;;;;;;17.38;7.65;;;;;;;16.06;90.78;92411.69;4755452;30;20042;-75
2022/06/07 06:57:56;;;;;;;17.67;7.43;;;;;;;16.12;91.16;92410.41;4740665;30;20440;-75
2022/06/07 07:00:22;;;;;;;17.77;7.38;;;;;;;16.14;91.94;92416.13;4755404;30;20051;-75
2022/06/07 07:02:49;;;;;;;12.75;7.25;;;;;;;16.09;91.02;92411.81;4755320;30;20050;-75
2022/06/07 07:05:16;;;;;;;13.85;7.10;;;;;;;16.08;91.19;92407.66;4740612;30;20039;-75
2022/06/07 07:07:47;;;;;;;20.58;6.93;;;;;;;16.05;91.62;92412.78;4755167;30;20044;-75
2022/06/07 07:10:20;;;;;;;15.15;7.25;;;;;;;16.00;92.34;92417.16;4755239;30;20043;-75
2022/06/07 07:12:46;;;;;;;17.00;8.13;;;;;;;15.96;92.22;92420.75;4726350;30;20039;-75
2022/06/07 07:15:13;;;;;;;13.80;8.05;;;;;;;15.88;92.82;92416.31;4740551;30;20170;-75
2022/06/07 07:17:51;;;;;;;15.40;7.72;;;;;;;16.24;90.32;92410.47;4756936;30;20052;-75
2022/06/07 07:20:18;;;;;;;19.92;7.80;;;;;;;16.13;91.37;92414.59;4740536;30;20503;-75
2022/06/07 07:22:48;;;;;;;17.98;7.53;;;;;;;16.10;91.66;92415.22;4740664;30;20044;-75
2022/06/07 07:25:14;;;;;;;13.15;6.45;;;;;;;15.91;92.08;92419.06;4754881;30;20040;-75
2022/06/07 07:27:41;;;;;;;16.13;6.70;;;;;;;15.86;92.32;92419.28;4740481;30;20050;-75
2022/06/07 07:30:09;;;;;;;12.57;6.97;;;;;;;15.81;93.39;92425.50;4754862;30;20055;-75
2022/06/07 07:32:37;;;;;;;16.20;6.78;;;;;;;15.90;92.04;92422.81;4740311;30;20118;-74
2022/06/07 07:35:03;;;;;;;14.32;6.85;;;;;;;15.77;92.69;92421.97;4754656;30;20549;-75
2022/06/07 07:37:36;;;;;;;12.23;6.43;;;;;;;15.75;93.29;92441.84;4754783;30;20043;-75
2022/06/07 07:40:10;;;;;;;14.32;6.93;;;;;;;15.78;94.64;92442.00;4754585;30;20055;-75
2022/06/07 07:42:36;;;;;;;13.82;7.55;;;;;;;15.82;96.90;92442.09;4751293;30;20117;-75
2022/06/07 07:45:12;;;;;;;20.60;8.70;;;;;;;15.85;97.91;92430.13;4721903;30;20041;-75
2022/06/07 07:47:39;;;;;;;22.45;8.52;;;;;;;15.71;97.84;92433.00;4737018;30;20055;-75
2022/06/07 07:50:05;;;;;;;21.48;8.75;;;;;;;15.68;99.17;92436.28;4736991;30;20056;-75
2022/06/07 07:52:32;;;;;;;16.92;7.68;;;;;;;15.70;98.58;92434.09;4751695;30;20025;-75
2022/06/07 07:55:05;;;;;;;19.15;7.53;;;;;;;15.71;98.19;92440.94;4736766;30;20076;-76
2022/06/07 07:57:31;;;;;;;16.55;7.65;;;;;;;15.66;99.33;92443.72;4736759;30;20044;-75
2022/06/07 07:59:58;;;;;;;14.57;7.80;;;;;;;15.68;98.69;92436.28;4736763;30;20101;-75
2022/06/07 08:02:24;;;;;;;17.83;7.75;;;;;;;15.72;99.08;92437.22;4736876;30;20075;-75
2022/06/07 08:05:04;;;;;;;15.95;6.55;;;;;;;15.79;95.56;92443.53;4735622;30;20067;-75
2022/06/07 08:07:32;;;;;;;14.85;6.47;;;;;;;15.71;95.27;92440.94;4736733;30;20277;-75
2022/06/07 08:10:03;;;;;;;13.27;7.03;;;;;;;15.57;96.88;92436.63;4722412;30;20066;-74
2022/06/07 08:12:29;;;;;;;14.98;8.10;;;;;;;15.54;98.10;92442.53;4736709;30;20057;-75
2022/06/07 08:14:55;;;;;;;19.23;8.57;;;;;;;15.28;99.97;92442.63;4752394;30;20064;-74
2022/06/07 08:17:20;;;;;;;15.85;8.68;;;;;;;15.20;100.00;92435.53;4752312;30;20055;-75
2022/06/07 08:19:46;;;;;;;18.90;8.90;;;;;;;15.13;100.00;92441.28;4752383;30;20036;-75
2022/06/07 08:22:12;;;;;;;15.73;8.80;;;;;;;15.01;100.00;92443.78;4736431;30;20411;-75
2022/06/07 08:24:38;;;;;;;23.52;10.40;;;;;;;14.97;100.00;92446.31;4736428;30;20044;-75
2022/06/07 08:27:04;;;;;;;416.50;18.88;;;;;;;15.07;100.00;92447.81;4721799;30;20044;-75
2022/06/07 08:29:29;;;;;;;26.73;12.88;;;;;;;15.01;100.00;92448.28;4752218;30;20051;-75
2022/06/07 08:31:55;;;;;;;33.17;12.40;;;;;;;15.01;100.00;92446.44;4736267;30;20167;-75
2022/06/07 08:39:49;;;;;;;149.32;14.23;;;;;;;15.09;100.00;92471.25;4751811;30;20167;-75
2022/06/07 08:42:15;;;;;;;26.20;12.18;;;;;;;15.05;100.00;92473.72;4752003;30;20351;-75
2022/06/07 08:44:49;;;;;;;24.48;12.85;;;;;;;15.07;100.00;92470.78;4752032;30;20111;-75
2022/06/07 08:47:25;;;;;;;40.97;14.43;;;;;;;14.99;100.00;92469.69;4735978;30;20043;-75
2022/06/07 08:49:58;;;;;;;28.85;14.55;;;;;;;14.97;100.00;92463.94;4735946;30;20525;-75
2022/06/07 08:52:27;;;;;;;;;;;;;;;15.07;100.00;92466.28;4752141;30;20044;-75
2022/06/07 08:54:58;;;;;;;35.08;13.77;;;;;;;15.14;100.00;92473.69;4751828;30;19950;-75
2022/06/07 08:57:27;;;;;;;33.20;14.40;;;;;;;15.23;100.00;92479.72;4751810;30;20052;-75
2022/06/07 09:00:15;;;;;;;34.40;14.43;;;;;;;15.32;100.00;92466.50;4735904;30;20060;-76
2022/06/07 09:03:04;;;;;;;25.70;12.32;;;;;;;15.39;100.00;92464.94;4751652;30;20047;-76
2022/06/07 09:05:29;;;;;;;30.90;12.63;;;;;;;15.45;100.00;92460.25;4735788;30;20055;-75
2022/06/07 09:07:55;;;;;;;25.98;12.20;;;;;;;15.51;100.00;92452.94;4735759;30;20038;-76
2022/06/07 09:13:17;;;;;;;20.67;11.05;;;;;;;15.79;100.00;92454.09;4751432;30;20044;-75
2022/06/07 09:15:50;;;;;;;26.48;11.75;;;;;;;15.97;100.00;92449.47;4751253;30;20119;-75
2022/06/07 09:18:19;;;;;;;21.92;10.95;;;;;;;16.16;100.00;92453.56;4751531;30;20047;-75
2022/06/07 09:20:54;;;;;;;27.33;9.73;;;;;;;16.34;100.00;92451.56;4751379;30;20510;-76
2022/06/07 09:23:36;;;;;;;19.73;9.35;;;;;;;16.49;100.00;92458.91;4735199;30;20040;-75
2022/06/07 09:26:13;;;;;;;671.13;20.92;;;;;;;16.54;99.47;92448.13;4751230;30;20055;-75
2022/06/07 09:28:39;;;;;;;172.77;15.15;;;;;;;16.57;100.00;92444.88;4751233;30;20050;-76
2022/06/07 09:31:17;;;;;;;25.58;12.10;;;;;;;16.56;100.00;92442.53;4751205;30;20502;-76
2022/06/07 09:33:49;;;;;;;16.92;9.60;;;;;;;16.63;98.24;92443.56;4735220;30;20541;-76
2022/06/07 09:36:27;;;;;;;17.88;8.70;;;;;;;16.70;97.28;92434.34;4751131;30;20036;-76
2022/06/07 09:39:05;;;;;;;24.25;9.10;;;;;;;16.70;94.14;92427.19;4735161;30;20047;-76
2022/06/07 09:41:38;;;;;;;20.33;9.85;;;;;;;16.78;95.68;92422.94;4735091;30;20200;-76
2022/06/07 09:44:14;;;;;;;25.35;11.27;;;;;;;16.79;99.41;92422.59;4763614;30;20076;-75
2022/06/07 09:46:42;;;;;;;1359.10;42.50;;;;;;;16.60;100.00;92428.34;4768742;30;20495;-76
2022/06/07 09:49:25;;;;;;;1545.75;40.70;;;;;;;16.16;100.00;92424.50;4768683;30;20406;-76
2022/06/07 09:51:50;;;;;;;;;;;;;;;15.79;100.00;92426.91;4769072;30;20047;-76
2022/06/07 09:54:19;;;;;;;1974.38;61.70;;;;;;;15.65;100.00;92421.06;4769615;30;19928;-76
2022/06/07 09:57:03;;;;;;;61.75;19.65;;;;;;;15.67;100.00;92417.03;4752513;30;20043;-76
2022/06/07 09:59:37;;;;;;;30.08;15.57;;;;;;;15.83;100.00;92417.28;4768478;30;20047;-76
2022/06/07 10:02:19;;;;;;;28.52;14.57;;;;;;;15.79;100.00;92419.00;4768465;30;20047;-76
2022/06/07 10:05:06;;;;;;;25.10;14.52;;;;;;;15.95;100.00;92414.72;4768480;30;20067;-76
2022/06/07 10:07:39;;;;;;;31.77;14.75;;;;;;;16.05;100.00;92415.41;4768410;30;20127;-76
2022/06/07 10:10:29;;;;;;;35.20;16.65;;;;;;;16.07;100.00;92410.59;4768320;30;20089;-75
2022/06/07 10:12:54;;;;;;;33.25;15.48;;;;;;;16.31;100.00;92405.44;4768341;30;20051;-75
2022/06/07 10:15:56;;;;;;;27.75;15.00;;;;;;;16.49;100.00;92394.75;4752458;30;20035;-76
2022/06/07 10:19:03;;;;;;;30.27;16.40;;;;;;;16.62;100.00;92389.16;4768402;30;20051;-76
2022/06/07 10:21:41;;;;;;;38.45;16.35;;;;;;;16.57;100.00;92396.50;4728733;30;20051;-76
2022/06/07 10:24:28;;;;;;;29.80;14.45;;;;;;;16.40;99.49;92398.22;4768853;30;20147;-76
2022/06/07 10:26:57;;;;;;;26.63;15.27;;;;;;;16.42;100.00;92390.75;4767906;30;20079;-76
2022/06/07 10:29:32;;;;;;;27.73;14.63;;;;;;;16.52;98.68;92383.50;4768378;30;20062;-76
2022/06/07 10:32:12;;;;;;;24.45;12.57;;;;;;;16.59;97.26;92379.22;4768415;30;20040;-76
2022/06/07 10:34:51;;;;;;;32.35;14.32;;;;;;;16.57;99.37;92376.16;4752066;30;20112;-75
2022/06/07 10:37:43;;;;;;;29.05;13.75;;;;;;;16.65;96.43;92366.59;4768073;30;20078;-76
2022/06/07 10:40:18;;;;;;;28.10;13.77;;;;;;;16.87;97.69;92362.06;4768053;30;20055;-75
2022/06/07 10:42:49;;;;;;;31.27;15.13;;;;;;;17.02;96.27;92359.56;4751825;30;20110;-75
2022/06/07 10:45:19;;;;;;;22.45;11.57;;;;;;;17.25;94.38;92357.25;4767943;30;20039;-75
2022/06/07 10:47:58;;;;;;;18.45;8.88;;;;;;;17.43;91.07;92346.47;4768274;30;20040;-75
2022/06/07 10:50:40;;;;;;;15.23;6.28;;;;;;;17.62;82.17;92343.25;4768190;30;20059;-75
2022/06/07 10:53:18;;;;;;;18.63;7.13;;;;;;;17.73;88.08;92343.56;4767897;30;20395;-75
2022/06/07 10:56:17;;;;;;;18.27;8.45;;;;;;;17.75;91.56;92341.38;4767986;30;20495;-75
2022/06/07 10:58:47;;;;;;;20.38;9.73;;;;;;;17.87;93.54;92336.06;4768042;30;20063;-75
2022/06/07 11:01:41;;;;;;;18.48;9.45;;;;;;;17.87;90.69;92322.81;4768035;30;20401;-75
2022/06/07 11:09:19;;;;;;;15.80;8.18;;;;;;;18.39;87.89;92319.31;4767789;30;20054;-75
2022/06/07 11:09:54;;;;;;;15.32;7.78;;;;;;;18.33;86.17;92306.66;4767840;30;20051;-75
2022/06/07 11:12:27;;;;;;;16.95;8.93;;;;;;;18.74;88.70;92316.06;4767923;30;20482;-75
2022/06/07 11:15:16;;;;;;;16.60;9.00;;;;;;;18.96;86.50;92311.31;4767701;30;20134;-75
2022/06/07 11:18:06;;;;;;;17.13;8.18;;;;;;;19.07;83.69;92309.69;4767345;30;20049;-75
2022/06/07 11:20:34;;;;;;;17.00;8.30;;;;;;;19.42;79.41;92304.44;4767968;30;20047;-75
2022/06/07 11:23:23;;;;;;;15.77;7.78;;;;;;;19.37;78.96;92302.06;4767505;30;20031;-75
2022/06/07 11:26:05;;;;;;;16.85;7.55;;;;;;;19.61;80.10;92309.06;4767748;30;20554;-75
2022/06/07 11:28:45;;;;;;;17.23;6.63;;;;;;;19.74;78.86;92307.81;4751633;30;20051;-75
2022/06/07 11:31:28;;;;;;;10.07;5.50;;;;;;;20.01;75.60;92305.34;4767620;30;20040;-75
2022/06/07 11:33:53;;;;;;;13.85;6.57;;;;;;;20.28;75.21;92294.84;4767502;30;20075;-76
2022/06/07 11:36:25;;;;;;;11.38;4.82;;;;;;;20.21;72.00;92300.03;4767593;30;20078;-75
2022/06/07 11:38:54;;;;;;;14.60;6.18;;;;;;;20.45;77.05;92296.31;4768274;30;20063;-75
2022/06/07 11:41:37;;;;;;;13.90;4.85;;;;;;;20.28;75.94;92287.66;4754753;30;20051;-75
2022/06/07 11:44:11;;;;;;;9.73;5.63;;;;;;;19.58;74.75;92293.03;4770381;30;20089;-75
2022/06/07 11:46:47;;;;;;;12.27;6.18;;;;;;;19.29;77.61;92297.69;4770695;30;20043;-75
2022/06/07 11:49:24;;;;;;;12.73;5.65;;;;;;;19.49;75.24;92286.03;4770644;30;20060;-75
2022/06/07 11:51:59;;;;;;;12.15;5.90;;;;;;;19.43;78.51;92289.28;4754705;30;20379;-75
2022/06/07 11:54:54;;;;;;;12.25;5.72;;;;;;;19.54;76.42;92282.31;4769940;30;20047;-74
2022/06/07 11:57:23;;;;;;;21.73;6.00;;;;;;;19.66;76.73;92279.56;4769806;30;20036;-75
2022/06/07 11:59:52;;;;;;;16.60;7.20;;;;;;;19.54;77.49;92282.31;4752699;30;20032;-75
2022/06/07 12:02:17;;;;;;;10.35;3.97;;;;;;;19.67;77.36;92275.03;4754370;30;20046;-75
2022/06/07 12:04:43;;;;;;;25.13;5.88;;;;;;;19.65;78.84;92285.97;4767641;30;20036;-75
2022/06/07 12:07:24;;;;;;;12.85;5.55;;;;;;;19.78;75.93;92285.91;4752566;30;20040;-75
2022/06/07 12:10:19;;;;;;;10.05;4.88;;;;;;;19.94;73.43;92286.59;4767544;30;20039;-75
2022/06/07 12:12:55;;;;;;;11.38;4.82;;;;;;;19.89;73.84;92270.94;4757646;30;20075;-75
2022/06/07 12:15:30;;;;;;;8.88;4.22;;;;;;;20.08;73.27;92275.50;4754247;30;20066;-75
2022/06/07 12:18:03;;;;;;;11.00;5.38;;;;;;;20.18;70.60;92280.25;4770032;30;20530;-75
2022/06/07 12:20:33;;;;;;;7.97;4.10;;;;;;;20.30;70.60;92279.34;4769971;30;20495;-75
2022/06/07 12:23:24;;;;;;;10.40;3.90;;;;;;;20.07;72.73;92277.38;4769985;30;20034;-75
2022/06/07 12:25:59;;;;;;;11.32;5.35;;;;;;;20.05;72.55;92270.88;4761724;30;20434;-75
2022/06/07 12:28:28;;;;;;;10.50;4.50;;;;;;;20.05;73.77;92274.31;4736330;30;20042;-74